ADDS METAR Data INFO
IDs: Format: Raw Decoded Include TAF

Data at: 0314 UTC 20 Jul 2018

KCAG 200253Z AUTO 21004KT 10SM CLR 23/02 A3013 RMK AO2 SLP121 T02280022 53003
KCAG 200153Z AUTO 34005KT 10SM CLR 32/01 A3011 RMK AO2 SLP110 T03170006
KCAG 200053Z AUTO 33007KT 10SM CLR 34/M02 A3011 RMK AO2 SLP112 T03441022
KCAG 192353Z AUTO 29009G17KT 10SM CLR 35/M02 A3012 RMK AO2 SLP121 T03501022 10361 20322 56018
KCAG 192253Z AUTO 27008KT 10SM CLR 36/M01 A3013 RMK AO2 SLP122 T03561011
KCAG 192153Z AUTO 27014G22KT 10SM CLR 35/M01 A3016 RMK AO2 SLP132 T03501006
KCAG 192053Z AUTO 24011G23KT 10SM CLR 36/00 A3019 RMK AO2 SLP132 T03560000 56015
KCAG 191953Z AUTO 29019G24KT 10SM CLR 35/00 A3020 RMK AO2 SLP140 T03500000
KCAG 191853Z AUTO VRB05G15KT 10SM CLR 33/M01 A3022 RMK AO2 SLP140 T03331006
KCAG 191753Z AUTO 30008KT 10SM CLR 32/00 A3024 RMK AO2 SLP148 T03220000 10322 20072 58005
KCAG 191653Z AUTO VRB04KT 10SM CLR 29/01 A3024 RMK AO2 SLP150 T02890011
KCAG 191553Z AUTO 04004KT 10SM CLR 26/02 A3025 RMK AO2 SLP157 T02560022
KCAG 191453Z AUTO 00000KT 10SM CLR 21/04 A3026 RMK AO2 SLP164 T02110039 50001
KCAG 191353Z AUTO 00000KT 10SM CLR 15/03 A3026 RMK AO2 SLP166 T01500028
KCAG 191253Z AUTO 00000KT 10SM CLR 11/03 A3026 RMK AO2 SLP168 T01060033
KCAG 191153Z AUTO 00000KT 10SM CLR 07/02 A3025 RMK AO2 SLP171 T00720017 10172 20072 51007
KCAG 191053Z AUTO 00000KT 10SM CLR 09/01 A3025 RMK AO2 SLP164 T00890011
KCAG 190953Z AUTO 13003KT 10SM CLR 09/02 A3024 RMK AO2 SLP162 T00940022
KCAG 190853Z AUTO 09004KT 10SM CLR 13/03 A3023 RMK AO2 SLP147 T01280028 51000
KCAG 190753Z AUTO 10005KT 10SM CLR 13/06 A3023 RMK AO2 SLP150 T01280056
KCAG 190653Z AUTO 00000KT 10SM SCT120 17/03 A3023 RMK AO2 SLP147 T01670028 403500100
KCAG 190553Z AUTO VRB03KT 10SM CLR 18/05 A3022 RMK AO2 SLP143 T01780050 10339 20167 51013
KCAG 190453Z AUTO 00000KT 10SM CLR 21/02 A3022 RMK AO2 SLP142 T02060017
KCAG 190353Z AUTO 00000KT 10SM CLR 22/01 A3021 RMK AO2 SLP141 T02170006
KCAG 190253Z AUTO 26004KT 10SM CLR 23/02 A3018 RMK AO2 SLP137 T02330017 53001
KCAG 190153Z AUTO 31008KT 10SM CLR 30/M01 A3017 RMK AO2 SLP129 T03001006
KCAG 190053Z AUTO 31009KT 10SM CLR 32/M01 A3017 RMK AO2 SLP132 T03221011
KCAG 182353Z AUTO 29011KT 10SM CLR 33/01 A3017 RMK AO2 SLP134 T03280011 10350 20300 56013
KCAG 182253Z AUTO 31013G23KT 290V360 10SM CLR 34/01 A3018 RMK AO2 SLP132 T03440006
KCAG 182153Z AUTO 30008G19KT 270V340 10SM CLR 32/01 A3020 RMK AO2 SLP138 T03220011
KCAG 182053Z AUTO 29016G23KT 10SM CLR 34/01 A3022 RMK AO2 WSHFT 1943 SLP141 T03440006 58015
KCAG 182003Z AUTO 29014G23KT 10SM FEW120 34/02 A3023 RMK AO2 WSHFT 1943 T03390022
KCAG 181953Z AUTO 27020G28KT 10SM FEW120 34/02 A3024 RMK AO2 PK WND 28028/1952 SLP144 T03390022
KCAG 181853Z AUTO 29010G22KT 10SM FEW110 32/03 A3026 RMK AO2 PK WND 28026/1814 SLP152 T03220028
KCAG 181753Z AUTO 31011G20KT 270V340 10SM CLR 32/03 A3027 RMK AO2 SLP158 T03170028 10317 20100 58012
KCAG 181653Z AUTO 26007KT 10SM CLR 29/04 A3029 RMK AO2 SLP164 T02890044
KCAG 181553Z AUTO VRB04KT 10SM CLR 26/07 A3030 RMK AO2 SLP171 T02560072